Turrell, AR

12:45 PM CST on November 26, 2014 (GMT -0600)
Olive Branch | Change Station
CLOSE
Current Station
Airport
Location: Olive Branch,
Elevation: 400 ft
Nearby Weather Stations

Elev 400 ft 34.98 °N, 89.79 °W | Updated 55 minutes ago

Overcast
Overcast
46 °F
Feels Like 40 °F
N
15
Wind Variable Wind from SSE
Gusts 20 mph

Today
High -- | Low -- °F
--% Chance of Precip.
Yesterday
High -- | Low -- °F
Precip. -- in
6:46 AM 4:49 PM
Waxing Crescent, 21% visible
Pressure 30.02 in
Visibility 10.0 miles
Clouds Mostly Cloudy 12000 ft
Overcast 25000 ft
Windchill 40 °F
Dew Point 32 °F
Humidity 57%
Rainfall 0.00 in
Snow Depth Not available.
UV 1 out of 12
Pollen .50 out of 12
Air Quality Not available.
Flu Activity Not available.
METAR KOLV 261750Z 16013G17KT 10SM BKN120 OVC250 08/00 A3002

More Conditions Fewer Conditions

Pressure 30.02 in
Visibility 10.0 miles
Clouds Mostly Cloudy 12000 ft
Overcast 25000 ft
Windchill 40 °F
Dew Point 32 °F
Humidity 57%
Rainfall 0.00 in
Snow Depth Not available.
UV 1 out of 12
Pollen .50 out of 12
Air Quality Not available.
Flu Activity Not available.
METAR KOLV 261750Z 16013G17KT 10SM BKN120 OVC250 08/00 A3002

More Conditions Fewer Conditions

10-Day Weather Forecast

Almanac

Astronomy

Nov. 26, 2014 Rise Set
Actual Time
Civil Twilight
Nautical Twilight
Astronomical Twilight
Moon
Length of Visible Light
Length of Day
Tomorrow will be .
, % of the Moon is Illuminated

Today's Extremes

State Highs State Lows

Community

WunderPhotos

Upload Photos

1,773,827 photos uploaded!

WunderBlogs® & News

Nearby

Air Quality

  Air Quality AQ Index Pollutant
Not available.

Snow Depth

Station Depth Elevation

Earthquake Activity

City Distance Mag. Time & Date
Minimum magnitude displayed is 2.5.

Coastal Water Temperatures

Place Temperature

Nearby Weather Stations